sensor_id;sensor_type;location;lat;lon;timestamp;P1;durP1;ratioP1;P2;durP2;ratioP2
26977;SDS011;56314;48.088;11.642;2022-09-02T00:01:45;5.65;;;4.68;;
26977;SDS011;56314;48.088;11.642;2022-09-02T00:04:14;12.25;;;4.35;;
26977;SDS011;56314;48.088;11.642;2022-09-02T00:06:41;5.53;;;4.20;;
26977;SDS011;56314;48.088;11.642;2022-09-02T00:09:08;7.72;;;4.55;;
26977;SDS011;56314;48.088;11.642;2022-09-02T00:11:35;4.65;;;4.00;;
26977;SDS011;56314;48.088;11.642;2022-09-02T00:14:03;4.13;;;3.72;;
26977;SDS011;56314;48.088;11.642;2022-09-02T00:16:31;4.90;;;4.50;;
26977;SDS011;56314;48.088;11.642;2022-09-02T00:18:57;5.05;;;4.00;;
26977;SDS011;56314;48.088;11.642;2022-09-02T00:21:24;7.13;;;4.80;;
26977;SDS011;56314;48.088;11.642;2022-09-02T00:23:50;4.50;;;4.10;;
26977;SDS011;56314;48.088;11.642;2022-09-02T00:26:16;4.60;;;4.15;;
26977;SDS011;56314;48.088;11.642;2022-09-02T00:28:42;4.93;;;4.43;;
26977;SDS011;56314;48.088;11.642;2022-09-02T00:31:07;5.47;;;3.88;;
26977;SDS011;56314;48.088;11.642;2022-09-02T00:33:33;6.43;;;4.55;;
26977;SDS011;56314;48.088;11.642;2022-09-02T00:36:00;5.03;;;4.18;;
26977;SDS011;56314;48.088;11.642;2022-09-02T00:38:27;4.57;;;4.15;;
26977;SDS011;56314;48.088;11.642;2022-09-02T00:40:53;4.93;;;4.45;;
26977;SDS011;56314;48.088;11.642;2022-09-02T00:43:23;5.97;;;3.95;;
26977;SDS011;56314;48.088;11.642;2022-09-02T00:46:07;6.50;;;4.30;;
26977;SDS011;56314;48.088;11.642;2022-09-02T00:48:33;5.03;;;4.30;;
26977;SDS011;56314;48.088;11.642;2022-09-02T00:50:59;4.88;;;4.47;;
26977;SDS011;56314;48.088;11.642;2022-09-02T00:53:27;5.25;;;4.00;;
26977;SDS011;56314;48.088;11.642;2022-09-02T00:55:53;4.40;;;4.00;;
26977;SDS011;56314;48.088;11.642;2022-09-02T00:58:21;5.18;;;4.22;;
26977;SDS011;56314;48.088;11.642;2022-09-02T01:00:53;6.68;;;4.15;;
26977;SDS011;56314;48.088;11.642;2022-09-02T01:03:24;4.75;;;4.25;;
26977;SDS011;56314;48.088;11.642;2022-09-02T01:05:51;4.53;;;4.13;;
26977;SDS011;56314;48.088;11.642;2022-09-02T01:08:20;6.93;;;4.43;;
26977;SDS011;56314;48.088;11.642;2022-09-02T01:10:49;5.55;;;4.80;;
26977;SDS011;56314;48.088;11.642;2022-09-02T01:13:17;5.45;;;4.10;;
26977;SDS011;56314;48.088;11.642;2022-09-02T01:15:47;5.03;;;4.43;;
26977;SDS011;56314;48.088;11.642;2022-09-02T01:18:17;4.90;;;4.15;;
26977;SDS011;56314;48.088;11.642;2022-09-02T01:20:45;8.55;;;4.65;;
26977;SDS011;56314;48.088;11.642;2022-09-02T01:23:11;7.75;;;4.57;;
26977;SDS011;56314;48.088;11.642;2022-09-02T01:25:38;5.80;;;4.53;;
26977;SDS011;56314;48.088;11.642;2022-09-02T01:28:05;6.85;;;4.03;;
26977;SDS011;56314;48.088;11.642;2022-09-02T01:30:33;5.35;;;4.00;;
26977;SDS011;56314;48.088;11.642;2022-09-02T01:33:02;6.25;;;5.00;;
26977;SDS011;56314;48.088;11.642;2022-09-02T01:35:28;5.07;;;4.40;;
26977;SDS011;56314;48.088;11.642;2022-09-02T01:37:54;4.65;;;3.55;;
26977;SDS011;56314;48.088;11.642;2022-09-02T01:40:21;4.30;;;3.90;;
26977;SDS011;56314;48.088;11.642;2022-09-02T01:42:48;4.05;;;3.75;;
26977;SDS011;56314;48.088;11.642;2022-09-02T01:45:18;5.65;;;4.30;;
26977;SDS011;56314;48.088;11.642;2022-09-02T01:47:44;6.93;;;4.35;;
26977;SDS011;56314;48.088;11.642;2022-09-02T01:50:10;5.35;;;4.45;;
26977;SDS011;56314;48.088;11.642;2022-09-02T01:52:35;6.10;;;4.32;;
26977;SDS011;56314;48.088;11.642;2022-09-02T01:55:01;4.85;;;4.25;;
26977;SDS011;56314;48.088;11.642;2022-09-02T01:57:27;7.25;;;4.45;;
26977;SDS011;56314;48.088;11.642;2022-09-02T01:59:52;6.50;;;4.60;;
26977;SDS011;56314;48.088;11.642;2022-09-02T02:02:18;8.15;;;5.03;;
26977;SDS011;56314;48.088;11.642;2022-09-02T02:04:45;4.80;;;4.05;;
26977;SDS011;56314;48.088;11.642;2022-09-02T02:07:12;8.38;;;4.68;;
26977;SDS011;56314;48.088;11.642;2022-09-02T02:09:39;5.97;;;4.53;;
26977;SDS011;56314;48.088;11.642;2022-09-02T02:12:06;5.60;;;4.50;;
26977;SDS011;56314;48.088;11.642;2022-09-02T02:14:32;6.03;;;4.32;;
26977;SDS011;56314;48.088;11.642;2022-09-02T02:16:57;4.80;;;4.13;;
26977;SDS011;56314;48.088;11.642;2022-09-02T02:19:23;6.63;;;3.83;;
26977;SDS011;56314;48.088;11.642;2022-09-02T02:21:48;6.78;;;4.35;;
26977;SDS011;56314;48.088;11.642;2022-09-02T02:24:14;5.30;;;4.80;;
26977;SDS011;56314;48.088;11.642;2022-09-02T02:26:39;5.40;;;4.38;;
26977;SDS011;56314;48.088;11.642;2022-09-02T02:29:05;5.97;;;4.80;;
26977;SDS011;56314;48.088;11.642;2022-09-02T02:31:30;9.52;;;4.47;;
26977;SDS011;56314;48.088;11.642;2022-09-02T02:33:56;6.65;;;4.68;;
26977;SDS011;56314;48.088;11.642;2022-09-02T02:36:21;7.82;;;4.70;;
26977;SDS011;56314;48.088;11.642;2022-09-02T02:38:47;7.50;;;4.85;;
26977;SDS011;56314;48.088;11.642;2022-09-02T02:41:13;6.30;;;4.85;;
26977;SDS011;56314;48.088;11.642;2022-09-02T02:43:39;4.88;;;4.38;;
26977;SDS011;56314;48.088;11.642;2022-09-02T02:46:05;5.25;;;4.75;;
26977;SDS011;56314;48.088;11.642;2022-09-02T02:48:32;6.07;;;4.55;;
26977;SDS011;56314;48.088;11.642;2022-09-02T02:50:58;6.53;;;4.63;;
26977;SDS011;56314;48.088;11.642;2022-09-02T02:53:24;6.85;;;4.88;;
26977;SDS011;56314;48.088;11.642;2022-09-02T02:55:49;8.43;;;4.57;;
26977;SDS011;56314;48.088;11.642;2022-09-02T02:58:15;5.45;;;4.85;;
26977;SDS011;56314;48.088;11.642;2022-09-02T03:00:41;5.03;;;4.53;;
26977;SDS011;56314;48.088;11.642;2022-09-02T03:03:07;6.13;;;4.80;;
26977;SDS011;56314;48.088;11.642;2022-09-02T03:05:34;6.15;;;4.75;;
26977;SDS011;56314;48.088;11.642;2022-09-02T03:08:02;6.38;;;4.78;;
26977;SDS011;56314;48.088;11.642;2022-09-02T03:10:30;6.70;;;5.07;;
26977;SDS011;56314;48.088;11.642;2022-09-02T03:12:57;5.93;;;4.78;;
26977;SDS011;56314;48.088;11.642;2022-09-02T03:15:23;6.15;;;4.72;;
26977;SDS011;56314;48.088;11.642;2022-09-02T03:17:49;5.30;;;4.80;;
26977;SDS011;56314;48.088;11.642;2022-09-02T03:20:16;7.20;;;4.60;;
26977;SDS011;56314;48.088;11.642;2022-09-02T03:22:42;5.88;;;4.57;;
26977;SDS011;56314;48.088;11.642;2022-09-02T03:25:10;6.57;;;4.45;;
26977;SDS011;56314;48.088;11.642;2022-09-02T03:27:37;5.70;;;4.80;;
26977;SDS011;56314;48.088;11.642;2022-09-02T03:30:04;8.55;;;5.40;;
26977;SDS011;56314;48.088;11.642;2022-09-02T03:32:32;5.82;;;5.22;;
26977;SDS011;56314;48.088;11.642;2022-09-02T03:34:57;8.25;;;5.38;;
26977;SDS011;56314;48.088;11.642;2022-09-02T03:37:23;6.13;;;4.85;;
26977;SDS011;56314;48.088;11.642;2022-09-02T03:39:48;8.45;;;5.05;;
26977;SDS011;56314;48.088;11.642;2022-09-02T03:42:14;6.53;;;5.35;;
26977;SDS011;56314;48.088;11.642;2022-09-02T03:44:39;7.25;;;5.28;;
26977;SDS011;56314;48.088;11.642;2022-09-02T03:47:06;7.03;;;6.32;;
26977;SDS011;56314;48.088;11.642;2022-09-02T03:49:32;8.65;;;5.75;;
26977;SDS011;56314;48.088;11.642;2022-09-02T03:51:58;9.05;;;6.60;;
26977;SDS011;56314;48.088;11.642;2022-09-02T03:54:23;9.38;;;6.40;;
26977;SDS011;56314;48.088;11.642;2022-09-02T03:56:48;9.02;;;7.38;;
26977;SDS011;56314;48.088;11.642;2022-09-02T03:59:14;9.73;;;6.75;;
26977;SDS011;56314;48.088;11.642;2022-09-02T04:01:40;10.13;;;7.18;;
26977;SDS011;56314;48.088;11.642;2022-09-02T04:04:06;7.15;;;6.43;;
26977;SDS011;56314;48.088;11.642;2022-09-02T04:06:31;8.60;;;6.95;;
26977;SDS011;56314;48.088;11.642;2022-09-02T04:08:57;8.50;;;7.53;;
26977;SDS011;56314;48.088;11.642;2022-09-02T04:11:22;9.77;;;8.77;;
26977;SDS011;56314;48.088;11.642;2022-09-02T04:13:49;12.30;;;8.35;;
26977;SDS011;56314;48.088;11.642;2022-09-02T04:16:16;10.23;;;8.40;;
26977;SDS011;56314;48.088;11.642;2022-09-02T04:18:44;8.75;;;7.85;;
26977;SDS011;56314;48.088;11.642;2022-09-02T04:21:09;11.27;;;8.25;;
26977;SDS011;56314;48.088;11.642;2022-09-02T04:23:35;10.68;;;8.15;;
26977;SDS011;56314;48.088;11.642;2022-09-02T04:26:05;13.48;;;9.10;;
26977;SDS011;56314;48.088;11.642;2022-09-02T04:28:36;13.18;;;10.00;;
26977;SDS011;56314;48.088;11.642;2022-09-02T04:31:05;9.45;;;8.45;;
26977;SDS011;56314;48.088;11.642;2022-09-02T04:33:32;11.25;;;9.32;;
26977;SDS011;56314;48.088;11.642;2022-09-02T04:35:58;9.88;;;8.95;;
26977;SDS011;56314;48.088;11.642;2022-09-02T04:38:23;11.15;;;9.45;;
26977;SDS011;56314;48.088;11.642;2022-09-02T04:40:48;10.70;;;8.70;;
26977;SDS011;56314;48.088;11.642;2022-09-02T04:43:14;13.05;;;9.82;;
26977;SDS011;56314;48.088;11.642;2022-09-02T04:45:43;11.45;;;9.77;;
26977;SDS011;56314;48.088;11.642;2022-09-02T04:48:10;12.07;;;9.75;;
26977;SDS011;56314;48.088;11.642;2022-09-02T04:50:36;11.20;;;9.45;;
26977;SDS011;56314;48.088;11.642;2022-09-02T04:53:03;11.98;;;9.10;;
26977;SDS011;56314;48.088;11.642;2022-09-02T04:55:29;12.82;;;9.07;;
26977;SDS011;56314;48.088;11.642;2022-09-02T04:57:55;11.15;;;8.85;;
26977;SDS011;56314;48.088;11.642;2022-09-02T05:00:20;10.80;;;8.82;;
26977;SDS011;56314;48.088;11.642;2022-09-02T05:02:46;9.50;;;8.13;;
26977;SDS011;56314;48.088;11.642;2022-09-02T05:05:11;9.25;;;8.35;;
26977;SDS011;56314;48.088;11.642;2022-09-02T05:07:37;8.82;;;7.90;;
26977;SDS011;56314;48.088;11.642;2022-09-02T05:10:03;11.32;;;9.02;;
26977;SDS011;56314;48.088;11.642;2022-09-02T05:12:30;9.65;;;8.30;;
26977;SDS011;56314;48.088;11.642;2022-09-02T05:14:56;10.60;;;8.18;;
26977;SDS011;56314;48.088;11.642;2022-09-02T05:17:25;9.98;;;8.57;;
26977;SDS011;56314;48.088;11.642;2022-09-02T05:19:51;8.85;;;7.93;;
26977;SDS011;56314;48.088;11.642;2022-09-02T05:22:16;12.07;;;8.02;;
26977;SDS011;56314;48.088;11.642;2022-09-02T05:24:42;10.48;;;8.18;;
26977;SDS011;56314;48.088;11.642;2022-09-02T05:27:08;13.40;;;7.95;;
26977;SDS011;56314;48.088;11.642;2022-09-02T05:29:33;10.30;;;8.05;;
26977;SDS011;56314;48.088;11.642;2022-09-02T05:31:59;9.77;;;8.80;;
26977;SDS011;56314;48.088;11.642;2022-09-02T05:34:25;11.82;;;8.25;;
26977;SDS011;56314;48.088;11.642;2022-09-02T05:36:51;9.13;;;8.25;;
26977;SDS011;56314;48.088;11.642;2022-09-02T05:39:16;10.88;;;8.60;;
26977;SDS011;56314;48.088;11.642;2022-09-02T05:41:42;8.68;;;7.88;;
26977;SDS011;56314;48.088;11.642;2022-09-02T05:44:07;9.00;;;7.45;;
26977;SDS011;56314;48.088;11.642;2022-09-02T05:46:33;10.05;;;8.40;;
26977;SDS011;56314;48.088;11.642;2022-09-02T05:48:59;13.30;;;8.73;;
26977;SDS011;56314;48.088;11.642;2022-09-02T05:51:31;10.25;;;8.05;;
26977;SDS011;56314;48.088;11.642;2022-09-02T05:53:58;9.38;;;7.57;;
26977;SDS011;56314;48.088;11.642;2022-09-02T05:56:25;9.23;;;8.27;;
26977;SDS011;56314;48.088;11.642;2022-09-02T05:58:51;10.30;;;7.88;;
26977;SDS011;56314;48.088;11.642;2022-09-02T06:01:19;10.98;;;7.45;;
26977;SDS011;56314;48.088;11.642;2022-09-02T06:03:45;8.18;;;7.35;;
26977;SDS011;56314;48.088;11.642;2022-09-02T06:06:11;9.23;;;7.57;;
26977;SDS011;56314;48.088;11.642;2022-09-02T06:08:36;9.15;;;7.22;;
26977;SDS011;56314;48.088;11.642;2022-09-02T06:11:03;11.18;;;7.10;;
26977;SDS011;56314;48.088;11.642;2022-09-02T06:13:33;10.80;;;6.82;;
26977;SDS011;56314;48.088;11.642;2022-09-02T06:15:59;14.05;;;7.32;;
26977;SDS011;56314;48.088;11.642;2022-09-02T06:18:26;7.93;;;7.10;;
26977;SDS011;56314;48.088;11.642;2022-09-02T06:20:52;7.93;;;6.63;;
26977;SDS011;56314;48.088;11.642;2022-09-02T06:23:18;10.63;;;6.78;;
26977;SDS011;56314;48.088;11.642;2022-09-02T06:25:44;7.70;;;6.85;;
26977;SDS011;56314;48.088;11.642;2022-09-02T06:28:11;8.13;;;6.88;;
26977;SDS011;56314;48.088;11.642;2022-09-02T06:30:37;9.70;;;7.20;;
26977;SDS011;56314;48.088;11.642;2022-09-02T06:33:04;12.75;;;7.40;;
26977;SDS011;56314;48.088;11.642;2022-09-02T06:35:30;10.15;;;6.50;;
26977;SDS011;56314;48.088;11.642;2022-09-02T06:38:00;9.63;;;7.47;;
26977;SDS011;56314;48.088;11.642;2022-09-02T06:40:25;8.93;;;6.40;;
26977;SDS011;56314;48.088;11.642;2022-09-02T06:42:51;7.13;;;6.43;;
26977;SDS011;56314;48.088;11.642;2022-09-02T06:45:18;9.73;;;6.63;;
26977;SDS011;56314;48.088;11.642;2022-09-02T06:47:43;9.98;;;7.00;;
26977;SDS011;56314;48.088;11.642;2022-09-02T06:50:09;8.77;;;6.07;;
26977;SDS011;56314;48.088;11.642;2022-09-02T06:52:35;10.05;;;6.00;;
26977;SDS011;56314;48.088;11.642;2022-09-02T06:55:01;7.43;;;5.90;;
26977;SDS011;56314;48.088;11.642;2022-09-02T06:57:26;6.40;;;5.75;;
26977;SDS011;56314;48.088;11.642;2022-09-02T06:59:52;6.07;;;5.57;;
26977;SDS011;56314;48.088;11.642;2022-09-02T07:02:17;6.93;;;5.50;;
26977;SDS011;56314;48.088;11.642;2022-09-02T07:04:42;6.28;;;4.68;;
26977;SDS011;56314;48.088;11.642;2022-09-02T07:07:26;6.85;;;5.28;;
26977;SDS011;56314;48.088;11.642;2022-09-02T07:09:52;6.15;;;4.35;;
26977;SDS011;56314;48.088;11.642;2022-09-02T07:12:19;8.27;;;4.50;;
26977;SDS011;56314;48.088;11.642;2022-09-02T07:14:44;6.28;;;4.22;;
26977;SDS011;56314;48.088;11.642;2022-09-02T07:17:11;7.18;;;4.07;;
26977;SDS011;56314;48.088;11.642;2022-09-02T07:19:42;6.43;;;3.83;;
26977;SDS011;56314;48.088;11.642;2022-09-02T07:22:08;5.43;;;3.92;;
26977;SDS011;56314;48.088;11.642;2022-09-02T07:24:35;6.20;;;3.95;;
26977;SDS011;56314;48.088;11.642;2022-09-02T07:27:01;3.65;;;3.17;;
26977;SDS011;56314;48.088;11.642;2022-09-02T07:29:26;4.85;;;3.88;;
26977;SDS011;56314;48.088;11.642;2022-09-02T07:31:51;5.70;;;3.63;;
26977;SDS011;56314;48.088;11.642;2022-09-02T07:34:17;5.05;;;3.42;;
26977;SDS011;56314;48.088;11.642;2022-09-02T07:36:44;6.32;;;3.70;;
26977;SDS011;56314;48.088;11.642;2022-09-02T07:39:13;7.40;;;3.33;;
26977;SDS011;56314;48.088;11.642;2022-09-02T07:41:41;3.60;;;3.30;;
26977;SDS011;56314;48.088;11.642;2022-09-02T07:44:08;5.63;;;3.60;;
26977;SDS011;56314;48.088;11.642;2022-09-02T07:46:34;4.72;;;3.40;;
26977;SDS011;56314;48.088;11.642;2022-09-02T07:49:00;4.53;;;3.30;;
26977;SDS011;56314;48.088;11.642;2022-09-02T07:51:30;4.60;;;3.22;;
26977;SDS011;56314;48.088;11.642;2022-09-02T07:53:56;4.88;;;3.42;;
26977;SDS011;56314;48.088;11.642;2022-09-02T07:56:22;4.00;;;3.00;;
26977;SDS011;56314;48.088;11.642;2022-09-02T07:58:47;4.43;;;2.90;;
26977;SDS011;56314;48.088;11.642;2022-09-02T08:01:12;4.18;;;3.10;;
26977;SDS011;56314;48.088;11.642;2022-09-02T08:03:38;5.88;;;3.10;;
26977;SDS011;56314;48.088;11.642;2022-09-02T08:06:05;3.50;;;3.20;;
26977;SDS011;56314;48.088;11.642;2022-09-02T08:08:32;6.20;;;3.10;;
26977;SDS011;56314;48.088;11.642;2022-09-02T08:10:57;7.80;;;3.28;;
26977;SDS011;56314;48.088;11.642;2022-09-02T08:13:23;5.95;;;2.83;;
26977;SDS011;56314;48.088;11.642;2022-09-02T08:15:49;4.55;;;2.50;;
26977;SDS011;56314;48.088;11.642;2022-09-02T08:18:16;3.90;;;2.47;;
26977;SDS011;56314;48.088;11.642;2022-09-02T08:20:42;5.03;;;2.33;;
26977;SDS011;56314;48.088;11.642;2022-09-02T08:23:07;2.70;;;2.40;;
26977;SDS011;56314;48.088;11.642;2022-09-02T08:25:33;3.53;;;2.33;;
26977;SDS011;56314;48.088;11.642;2022-09-02T08:27:59;6.20;;;2.60;;
26977;SDS011;56314;48.088;11.642;2022-09-02T08:30:25;4.70;;;2.53;;
26977;SDS011;56314;48.088;11.642;2022-09-02T08:32:51;3.13;;;2.22;;
26977;SDS011;56314;48.088;11.642;2022-09-02T08:35:16;4.00;;;2.28;;
26977;SDS011;56314;48.088;11.642;2022-09-02T08:37:42;5.10;;;2.25;;
26977;SDS011;56314;48.088;11.642;2022-09-02T08:40:12;2.53;;;2.33;;
26977;SDS011;56314;48.088;11.642;2022-09-02T08:45:22;2.03;;;1.77;;
26977;SDS011;56314;48.088;11.642;2022-09-02T08:47:57;2.50;;;2.25;;
26977;SDS011;56314;48.088;11.642;2022-09-02T08:50:26;5.03;;;2.33;;
26977;SDS011;56314;48.088;11.642;2022-09-02T08:55:23;3.20;;;2.03;;
26977;SDS011;56314;48.088;11.642;2022-09-02T08:57:55;2.42;;;2.03;;
26977;SDS011;56314;48.088;11.642;2022-09-02T09:00:21;3.70;;;1.90;;
26977;SDS011;56314;48.088;11.642;2022-09-02T09:05:56;6.40;;;1.80;;
26977;SDS011;56314;48.088;11.642;2022-09-02T09:16:34;2.97;;;1.75;;
26977;SDS011;56314;48.088;11.642;2022-09-02T09:21:39;1.60;;;1.50;;
26977;SDS011;56314;48.088;11.642;2022-09-02T09:24:51;2.05;;;1.67;;
26977;SDS011;56314;48.088;11.642;2022-09-02T09:26:54;3.20;;;2.00;;
26977;SDS011;56314;48.088;11.642;2022-09-02T09:29:20;1.58;;;1.48;;
26977;SDS011;56314;48.088;11.642;2022-09-02T09:31:55;2.28;;;1.67;;
26977;SDS011;56314;48.088;11.642;2022-09-02T09:34:22;3.70;;;1.80;;
26977;SDS011;56314;48.088;11.642;2022-09-02T09:36:49;2.10;;;1.70;;
26977;SDS011;56314;48.088;11.642;2022-09-02T09:41:48;2.75;;;1.90;;
26977;SDS011;56314;48.088;11.642;2022-09-02T09:47:09;3.13;;;1.63;;
26977;SDS011;56314;48.088;11.642;2022-09-02T09:49:43;1.90;;;1.75;;
26977;SDS011;56314;48.088;11.642;2022-09-02T09:52:09;6.30;;;1.95;;
26977;SDS011;56314;48.088;11.642;2022-09-02T09:54:34;1.90;;;1.80;;
26977;SDS011;56314;48.088;11.642;2022-09-02T09:57:13;3.33;;;1.40;;
26977;SDS011;56314;48.088;11.642;2022-09-02T09:59:43;3.72;;;1.58;;
26977;SDS011;56314;48.088;11.642;2022-09-02T10:02:21;3.03;;;1.42;;
26977;SDS011;56314;48.088;11.642;2022-09-02T10:04:49;2.53;;;1.90;;
26977;SDS011;56314;48.088;11.642;2022-09-02T10:07:36;2.50;;;1.75;;
26977;SDS011;56314;48.088;11.642;2022-09-02T10:10:18;2.20;;;1.65;;
26977;SDS011;56314;48.088;11.642;2022-09-02T10:12:45;1.98;;;1.77;;
26977;SDS011;56314;48.088;11.642;2022-09-02T10:15:13;2.45;;;1.48;;
26977;SDS011;56314;48.088;11.642;2022-09-02T10:20:19;4.97;;;2.15;;
26977;SDS011;56314;48.088;11.642;2022-09-02T10:23:10;3.03;;;1.83;;
26977;SDS011;56314;48.088;11.642;2022-09-02T10:31:16;1.50;;;1.40;;
26977;SDS011;56314;48.088;11.642;2022-09-02T10:36:18;1.92;;;1.67;;
26977;SDS011;56314;48.088;11.642;2022-09-02T10:38:58;2.20;;;1.45;;
26977;SDS011;56314;48.088;11.642;2022-09-02T10:41:39;2.55;;;1.58;;
26977;SDS011;56314;48.088;11.642;2022-09-02T10:52:24;3.40;;;1.67;;
26977;SDS011;56314;48.088;11.642;2022-09-02T10:58:00;1.98;;;1.25;;
26977;SDS011;56314;48.088;11.642;2022-09-02T11:00:28;2.25;;;1.58;;
26977;SDS011;56314;48.088;11.642;2022-09-02T11:13:25;2.22;;;1.30;;
26977;SDS011;56314;48.088;11.642;2022-09-02T11:18:53;1.73;;;1.30;;
26977;SDS011;56314;48.088;11.642;2022-09-02T11:21:29;1.67;;;1.45;;
26977;SDS011;56314;48.088;11.642;2022-09-02T11:24:05;3.70;;;1.60;;
26977;SDS011;56314;48.088;11.642;2022-09-02T11:26:55;3.92;;;1.58;;
26977;SDS011;56314;48.088;11.642;2022-09-02T11:29:36;2.08;;;1.30;;
26977;SDS011;56314;48.088;11.642;2022-09-02T11:34:42;1.45;;;1.20;;
26977;SDS011;56314;48.088;11.642;2022-09-02T11:37:11;5.10;;;1.60;;
26977;SDS011;56314;48.088;11.642;2022-09-02T11:39:55;3.28;;;1.55;;
26977;SDS011;56314;48.088;11.642;2022-09-02T11:45:20;1.48;;;1.30;;
26977;SDS011;56314;48.088;11.642;2022-09-02T11:53:59;2.55;;;1.30;;
26977;SDS011;56314;48.088;11.642;2022-09-02T11:56:28;1.42;;;1.33;;
26977;SDS011;56314;48.088;11.642;2022-09-02T11:59:00;1.17;;;1.17;;
26977;SDS011;56314;48.088;11.642;2022-09-02T12:01:29;1.40;;;1.30;;
26977;SDS011;56314;48.088;11.642;2022-09-02T12:06:34;2.70;;;1.25;;
26977;SDS011;56314;48.088;11.642;2022-09-02T12:09:02;2.35;;;1.50;;
26977;SDS011;56314;48.088;11.642;2022-09-02T12:11:37;4.55;;;1.60;;
26977;SDS011;56314;48.088;11.642;2022-09-02T12:17:03;2.47;;;1.30;;
26977;SDS011;56314;48.088;11.642;2022-09-02T12:19:49;2.67;;;1.25;;
26977;SDS011;56314;48.088;11.642;2022-09-02T12:24:47;1.75;;;1.63;;
26977;SDS011;56314;48.088;11.642;2022-09-02T12:27:25;2.20;;;1.35;;
26977;SDS011;56314;48.088;11.642;2022-09-02T12:29:52;2.45;;;1.40;;
26977;SDS011;56314;48.088;11.642;2022-09-02T12:35:28;1.20;;;1.10;;
26977;SDS011;56314;48.088;11.642;2022-09-02T12:43:51;2.97;;;1.58;;
26977;SDS011;56314;48.088;11.642;2022-09-02T12:46:27;1.48;;;1.33;;
26977;SDS011;56314;48.088;11.642;2022-09-02T12:49:02;2.15;;;1.55;;
26977;SDS011;56314;48.088;11.642;2022-09-02T12:51:50;4.30;;;1.40;;
26977;SDS011;56314;48.088;11.642;2022-09-02T12:55:03;2.38;;;1.40;;
26977;SDS011;56314;48.088;11.642;2022-09-02T12:57:13;2.63;;;1.20;;
26977;SDS011;56314;48.088;11.642;2022-09-02T12:59:41;1.50;;;1.40;;
26977;SDS011;56314;48.088;11.642;2022-09-02T13:10:46;3.10;;;1.38;;
26977;SDS011;56314;48.088;11.642;2022-09-02T13:19:15;2.05;;;1.40;;
26977;SDS011;56314;48.088;11.642;2022-09-02T13:22:29;1.30;;;1.20;;
26977;SDS011;56314;48.088;11.642;2022-09-02T13:34:11;1.60;;;1.50;;
26977;SDS011;56314;48.088;11.642;2022-09-02T13:36:44;1.65;;;1.48;;
26977;SDS011;56314;48.088;11.642;2022-09-02T13:41:42;2.58;;;1.50;;
26977;SDS011;56314;48.088;11.642;2022-09-02T13:44:12;3.85;;;1.95;;
26977;SDS011;56314;48.088;11.642;2022-09-02T13:46:45;3.95;;;1.70;;
26977;SDS011;56314;48.088;11.642;2022-09-02T13:49:22;3.13;;;1.30;;
26977;SDS011;56314;48.088;11.642;2022-09-02T13:51:50;2.78;;;1.40;;
26977;SDS011;56314;48.088;11.642;2022-09-02T13:54:22;3.08;;;1.17;;
26977;SDS011;56314;48.088;11.642;2022-09-02T13:56:53;2.20;;;1.45;;
26977;SDS011;56314;48.088;11.642;2022-09-02T14:07:52;1.52;;;1.42;;
26977;SDS011;56314;48.088;11.642;2022-09-02T14:10:19;2.00;;;1.45;;
26977;SDS011;56314;48.088;11.642;2022-09-02T14:12:47;2.75;;;1.42;;
26977;SDS011;56314;48.088;11.642;2022-09-02T14:15:15;7.60;;;1.65;;
26977;SDS011;56314;48.088;11.642;2022-09-02T14:18:05;2.47;;;1.42;;
26977;SDS011;56314;48.088;11.642;2022-09-02T14:20:51;2.25;;;1.30;;
26977;SDS011;56314;48.088;11.642;2022-09-02T14:23:18;1.52;;;1.40;;
26977;SDS011;56314;48.088;11.642;2022-09-02T14:25:53;3.67;;;1.38;;
26977;SDS011;56314;48.088;11.642;2022-09-02T14:28:22;2.50;;;1.30;;
26977;SDS011;56314;48.088;11.642;2022-09-02T14:31:03;1.63;;;1.50;;
26977;SDS011;56314;48.088;11.642;2022-09-02T14:33:43;2.78;;;1.30;;
26977;SDS011;56314;48.088;11.642;2022-09-02T14:41:17;4.00;;;1.40;;
26977;SDS011;56314;48.088;11.642;2022-09-02T14:43:53;2.33;;;1.33;;
26977;SDS011;56314;48.088;11.642;2022-09-02T14:49:00;2.22;;;1.50;;
26977;SDS011;56314;48.088;11.642;2022-09-02T14:52:15;2.83;;;1.25;;
26977;SDS011;56314;48.088;11.642;2022-09-02T14:54:38;2.75;;;1.52;;
26977;SDS011;56314;48.088;11.642;2022-09-02T14:57:24;2.03;;;1.30;;
26977;SDS011;56314;48.088;11.642;2022-09-02T14:59:58;3.30;;;1.55;;
26977;SDS011;56314;48.088;11.642;2022-09-02T15:02:42;1.58;;;1.10;;
26977;SDS011;56314;48.088;11.642;2022-09-02T15:05:10;1.80;;;1.58;;
26977;SDS011;56314;48.088;11.642;2022-09-02T15:07:40;2.25;;;1.33;;
26977;SDS011;56314;48.088;11.642;2022-09-02T15:10:06;4.63;;;1.95;;
26977;SDS011;56314;48.088;11.642;2022-09-02T15:12:34;1.98;;;1.42;;
26977;SDS011;56314;48.088;11.642;2022-09-02T15:15:02;4.43;;;1.65;;
26977;SDS011;56314;48.088;11.642;2022-09-02T15:17:28;4.20;;;1.70;;
26977;SDS011;56314;48.088;11.642;2022-09-02T15:19:54;3.83;;;1.40;;
26977;SDS011;56314;48.088;11.642;2022-09-02T15:22:20;2.47;;;1.27;;
26977;SDS011;56314;48.088;11.642;2022-09-02T15:24:45;2.13;;;1.60;;
26977;SDS011;56314;48.088;11.642;2022-09-02T15:27:12;2.00;;;1.30;;
26977;SDS011;56314;48.088;11.642;2022-09-02T15:29:38;2.00;;;1.30;;
26977;SDS011;56314;48.088;11.642;2022-09-02T15:32:04;5.00;;;1.50;;
26977;SDS011;56314;48.088;11.642;2022-09-02T15:34:30;2.47;;;1.60;;
26977;SDS011;56314;48.088;11.642;2022-09-02T15:36:56;1.48;;;1.30;;
26977;SDS011;56314;48.088;11.642;2022-09-02T15:39:22;4.10;;;1.38;;
26977;SDS011;56314;48.088;11.642;2022-09-02T15:41:48;2.50;;;1.30;;
26977;SDS011;56314;48.088;11.642;2022-09-02T15:44:14;3.63;;;1.42;;
26977;SDS011;56314;48.088;11.642;2022-09-02T15:46:41;1.25;;;1.15;;
26977;SDS011;56314;48.088;11.642;2022-09-02T15:49:07;3.78;;;1.40;;
26977;SDS011;56314;48.088;11.642;2022-09-02T15:51:35;2.28;;;1.27;;
26977;SDS011;56314;48.088;11.642;2022-09-02T15:54:04;3.28;;;1.55;;
26977;SDS011;56314;48.088;11.642;2022-09-02T15:56:34;1.73;;;1.50;;
26977;SDS011;56314;48.088;11.642;2022-09-02T16:01:32;1.55;;;1.45;;
26977;SDS011;56314;48.088;11.642;2022-09-02T16:03:58;1.50;;;1.35;;
26977;SDS011;56314;48.088;11.642;2022-09-02T16:06:26;2.70;;;1.42;;
26977;SDS011;56314;48.088;11.642;2022-09-02T16:08:52;1.52;;;1.42;;
26977;SDS011;56314;48.088;11.642;2022-09-02T16:11:17;3.17;;;1.60;;
26977;SDS011;56314;48.088;11.642;2022-09-02T16:13:44;1.80;;;1.30;;
26977;SDS011;56314;48.088;11.642;2022-09-02T16:16:10;6.60;;;1.60;;
26977;SDS011;56314;48.088;11.642;2022-09-02T16:18:37;2.33;;;1.75;;
26977;SDS011;56314;48.088;11.642;2022-09-02T16:21:04;2.45;;;1.40;;
26977;SDS011;56314;48.088;11.642;2022-09-02T16:23:31;1.50;;;1.40;;
26977;SDS011;56314;48.088;11.642;2022-09-02T16:28:35;2.40;;;1.35;;
26977;SDS011;56314;48.088;11.642;2022-09-02T16:31:05;1.40;;;1.30;;
26977;SDS011;56314;48.088;11.642;2022-09-02T16:33:31;1.33;;;1.23;;
26977;SDS011;56314;48.088;11.642;2022-09-02T16:35:57;4.53;;;1.60;;
26977;SDS011;56314;48.088;11.642;2022-09-02T16:38:22;2.20;;;1.55;;
26977;SDS011;56314;48.088;11.642;2022-09-02T16:40:48;1.60;;;1.50;;
26977;SDS011;56314;48.088;11.642;2022-09-02T16:43:17;5.07;;;1.40;;
26977;SDS011;56314;48.088;11.642;2022-09-02T16:45:45;1.52;;;1.33;;
26977;SDS011;56314;48.088;11.642;2022-09-02T16:48:11;2.20;;;1.80;;
26977;SDS011;56314;48.088;11.642;2022-09-02T16:50:37;2.33;;;1.42;;
26977;SDS011;56314;48.088;11.642;2022-09-02T16:53:02;1.98;;;1.60;;
26977;SDS011;56314;48.088;11.642;2022-09-02T16:55:27;1.77;;;1.45;;
26977;SDS011;56314;48.088;11.642;2022-09-02T16:57:54;2.30;;;1.70;;